NCAR-RAP Real-Time Weather Data

Output produced by METARs form (12 May 2021  11:28 UTC)
found at http://weather.rap.ucar.edu/surface/
 
KTXK 121053Z 05005KT 9SM OVC006 14/12 A3016 RMK AO2 CIG 004V009 SLP213 T01390122
KTXK 120953Z AUTO 05006KT 10SM OVC006 14/12 A3016 RMK AO2 CIG 004V010 SLP210 T01390122
KTXK 120853Z AUTO 05006KT 10SM OVC005 14/12 A3013 RMK AO2 CIG 004V009 SLP203 T01390122 51009
KTXK 120804Z AUTO 04008KT 3SM BR OVC003 14/13 A3013 RMK AO2 T01390128
KTXK 120753Z AUTO 04006KT 2 1/2SM BR OVC003 14/13 A3013 RMK AO2 CIG 002V008 SLP199 T01390128
KTXK 120701Z AUTO 04006KT 2 1/2SM BR OVC003 14/13 A3013 RMK AO2 CIG 002V007 T01390128
KTXK 120653Z AUTO 04007KT 3SM BR OVC003 14/13 A3013 RMK AO2 CIG 002V007 SLP199 T01390128
KTXK 120553Z AUTO 04007KT 2 1/2SM BR OVC003 14/13 A3011 RMK AO2 SLP193 60002 T01390128 10144 20139 401610133 51020
KTXK 120528Z AUTO 03007KT 2 1/2SM BR OVC004 14/13 A3011 RMK AO2 T01390128
KTXK 120453Z AUTO 03007KT 7SM OVC004 14/12 A3010 RMK AO2 SLP191 T01390122
KTXK 120409Z AUTO 06008KT 10SM OVC004 14/12 A3007 RMK AO2 T01390122
KTXK 120353Z AUTO 05008KT 10SM OVC005 14/12 A3006 RMK AO2 SLP179 T01390122
KTXK 120253Z AUTO 05007KT 10SM OVC005 14/12 A3005 RMK AO2 SLP173 60002 T01390122 51004
KTXK 120223Z 05009KT 10SM BKN005 14/12 A3004 RMK AO2 T01390122
KTXK 120209Z 05006KT 10SM FEW006 14/12 A3002 RMK AO2 T01390122
KTXK 120153Z 07007KT 10SM CLR 14/12 A3003 RMK AO2 SLP165 T01390122
KTXK 120136Z 08007KT 10SM SCT007 14/13 A3003 RMK AO2 T01390128
KTXK 120101Z 02006G15KT 10SM OVC006 14/13 A3008 RMK AO2 T01440128
KTXK 120053Z 36010G20KT 10SM OVC006 14/13 A3007 RMK AO2 PK WND 12031/0031 RAE42 PRESRR SLP182 P0002 T01440128
KTXK 120045Z 33012G21KT 10SM BKN005 OVC110 14/13 A3005 RMK AO2 PK WND 12031/0031 RAE42 PRESRR P0002 T01390128
KTXK 112353Z 10012G20KT 7SM RA FEW006 SCT080 OVC100 14/12 A3004 RMK AO2 PRESFR SLP169 P0011 6//// T01390122 10161 20139 58020
KTXK 112253Z 06008G19KT 10SM -RA SCT008 OVC100 14/13 A3010 RMK AO2 WSHFT 2144 LTG DSNT S SLP192 P0017 T01440128 $
KTXK 112201Z 04012KT 3SM +RA BR SCT006 BKN050 OVC080 14/14 A3011 RMK AO2 WSHFT 2144 LTG DSNT E P0003 T01440139 $
KTXK 112157Z 03012KT 2 1/2SM +RA BR SCT006 BKN049 OVC060 14/14 A3011 RMK AO2 LTG DSNT SE P0001 T01440139 $
KTXK 112153Z 05012KT 2SM +RA BR OVC006 14/13 A3012 RMK AO2 LTG DSNT SE RAB31 PRESRR SLP199 T01440133 PNO $
KTXK 112146Z 34011KT 1 3/4SM +RA BR OVC006 14/13 A3009 RMK AO2 LTG DSNT SE RAB31 T01440133 PNO $
KTXK 112138Z 34009KT 1SM VCTS +RA BR OVC006 14/13 A3009 RMK AO2 LTG DSNT E AND SE RAB31 T01440133 PNO $
KTXK 112053Z 36009KT 1SM BR OVC006 14/13 A3009 RMK AO2 LTG DSNT ALQDS RAB1954E03B11E21 TSB08E40 SLP189 P0001 60001 T01390133 53020 $
KTXK 112046Z 34012G19KT 1SM VCTS BR OVC006 16/14 A3008 RMK AO2 LTG DSNT ALQDS RAB1954E03B11E21 TSB08E40 P0001 T01560139 $